createdAt,value
2023-09-16T00:00:37.076Z,12.60
2023-09-16T00:03:23.656Z,12.90
2023-09-16T00:06:14.119Z,12.80
2023-09-16T00:09:00.337Z,12.93
2023-09-16T00:11:46.561Z,13.45
2023-09-16T00:14:32.404Z,13.57
2023-09-16T00:17:19.315Z,12.93
2023-09-16T00:20:16.434Z,13.18
2023-09-16T00:23:06.692Z,13.60
2023-09-16T00:25:53.509Z,13.38
2023-09-16T00:28:41.571Z,13.25
2023-09-16T00:31:28.620Z,13.40
2023-09-16T00:34:17.266Z,13.32
2023-09-16T00:37:04.395Z,13.23
2023-09-16T00:39:53.352Z,13.35
2023-09-16T00:42:40.147Z,13.20
2023-09-16T00:45:26.737Z,13.63
2023-09-16T00:48:16.338Z,13.20
2023-09-16T00:51:04.168Z,12.93
2023-09-16T00:53:51.824Z,13.65
2023-09-16T00:56:40.475Z,13.18
2023-09-16T00:59:27.743Z,13.50
2023-09-16T01:02:16.385Z,13.00
2023-09-16T01:05:06.508Z,13.68
2023-09-16T01:07:53.636Z,13.82
2023-09-16T01:10:42.705Z,14.07
2023-09-16T01:13:29.640Z,14.27
2023-09-16T01:16:41.743Z,14.07
2023-09-16T01:19:43.755Z,14.07
2023-09-16T01:22:30.160Z,14.07
2023-09-16T01:25:17.747Z,13.90
2023-09-16T01:28:04.623Z,14.45
2023-09-16T01:30:52.132Z,14.38
2023-09-16T01:33:49.508Z,13.93
2023-09-16T01:36:38.188Z,14.43
2023-09-16T01:39:26.939Z,14.70
2023-09-16T01:42:14.821Z,14.20
2023-09-16T01:45:03.786Z,15.10
2023-09-16T01:47:50.410Z,15.20
2023-09-16T01:50:38.032Z,15.00
2023-09-16T01:53:24.611Z,14.55
2023-09-16T01:56:11.015Z,15.07
2023-09-16T01:58:58.145Z,15.43
2023-09-16T02:01:46.608Z,14.90
2023-09-16T02:04:32.959Z,15.40
2023-09-16T02:07:20.118Z,14.93
2023-09-16T02:10:07.155Z,15.32
2023-09-16T02:12:54.206Z,15.20
2023-09-16T02:15:40.755Z,15.10
2023-09-16T02:18:27.864Z,15.65
2023-09-16T02:21:16.273Z,15.55
2023-09-16T02:24:03.010Z,15.50
2023-09-16T02:26:49.486Z,15.48
2023-09-16T02:29:36.260Z,15.52
2023-09-16T02:32:22.683Z,15.45
2023-09-16T02:35:09.988Z,15.63
2023-09-16T02:37:56.283Z,15.45
2023-09-16T02:40:43.720Z,15.45
2023-09-16T02:43:32.608Z,15.95
2023-09-16T02:46:19.683Z,15.23
2023-09-16T02:49:06.281Z,15.35
2023-09-16T02:51:53.240Z,15.45
2023-09-16T02:54:39.672Z,15.50
2023-09-16T02:57:25.958Z,15.45
2023-09-16T03:00:14.695Z,15.23
2023-09-16T03:03:01.569Z,14.73
2023-09-16T03:05:48.629Z,14.98
2023-09-16T03:08:36.232Z,15.73
2023-09-16T03:11:23.420Z,14.88
2023-09-16T03:14:10.523Z,14.70
2023-09-16T03:16:57.533Z,14.52
2023-09-16T03:19:43.917Z,14.35
2023-09-16T03:22:32.711Z,14.75
2023-09-16T03:25:19.250Z,14.80
2023-09-16T03:28:06.157Z,15.15
2023-09-16T03:30:53.365Z,15.38
2023-09-16T03:33:40.289Z,14.88
2023-09-16T03:36:28.555Z,15.25
2023-09-16T03:39:16.361Z,15.77
2023-09-16T03:42:03.042Z,14.95
2023-09-16T03:44:49.398Z,15.20
2023-09-16T03:47:36.608Z,15.55
2023-09-16T03:50:23.199Z,15.15
2023-09-16T03:53:11.934Z,15.77
2023-09-16T03:56:00.818Z,15.65
2023-09-16T03:58:47.690Z,15.95
2023-09-16T04:01:42.848Z,15.85
2023-09-16T04:07:16.017Z,16.13
2023-09-16T04:10:03.149Z,16.55
2023-09-16T04:12:50.954Z,16.50
2023-09-16T04:15:37.768Z,16.67
2023-09-16T04:18:25.833Z,16.33
2023-09-16T04:21:11.840Z,15.82
2023-09-16T04:23:58.849Z,16.10
2023-09-16T04:26:45.059Z,15.55
2023-09-16T04:29:32.884Z,14.85
2023-09-16T04:32:19.509Z,15.50
2023-09-16T04:35:07.096Z,15.45
2023-09-16T04:37:54.705Z,15.18
2023-09-16T04:40:45.561Z,14.40
2023-09-16T04:46:19.809Z,14.85
2023-09-16T04:49:07.266Z,14.38
2023-09-16T04:51:55.199Z,14.43
2023-09-16T04:54:43.561Z,14.15
2023-09-16T04:57:30.245Z,14.85
2023-09-16T05:00:19.343Z,14.50
2023-09-16T05:03:06.726Z,14.63
2023-09-16T05:05:55.024Z,14.93
2023-09-16T05:08:45.053Z,15.07
2023-09-16T05:11:31.976Z,15.65
2023-09-16T05:14:21.478Z,15.10
2023-09-16T05:17:08.607Z,15.63
2023-09-16T05:19:57.743Z,15.13
2023-09-16T05:22:48.369Z,14.90
2023-09-16T05:25:35.893Z,14.75
2023-09-16T05:28:22.928Z,15.23
2023-09-16T05:31:10.374Z,15.20
2023-09-16T05:33:59.100Z,15.90
2023-09-16T05:36:45.427Z,15.70
2023-09-16T05:39:34.112Z,15.52
2023-09-16T05:42:21.230Z,15.15
2023-09-16T05:45:09.733Z,14.95
2023-09-16T05:47:56.500Z,14.70
2023-09-16T05:50:44.095Z,15.00
2023-09-16T05:53:34.259Z,15.45
2023-09-16T05:56:30.027Z,14.63
2023-09-16T05:59:21.056Z,14.85
2023-09-16T06:02:13.452Z,15.23
2023-09-16T06:05:00.944Z,15.40
2023-09-16T06:07:47.797Z,14.85
2023-09-16T06:10:35.816Z,14.95
2023-09-16T06:13:22.699Z,15.38
2023-09-16T06:16:09.233Z,15.23
2023-09-16T06:18:56.691Z,15.77
2023-09-16T06:21:43.607Z,15.90
2023-09-16T06:24:31.807Z,15.07
2023-09-16T06:27:18.976Z,14.05
2023-09-16T06:30:05.838Z,14.57
2023-09-16T06:32:55.607Z,14.70
2023-09-16T06:35:42.484Z,14.60
2023-09-16T06:38:30.384Z,14.20
2023-09-16T06:41:16.773Z,14.30
2023-09-16T06:44:03.433Z,15.05
2023-09-16T06:46:50.112Z,14.57
2023-09-16T06:49:36.782Z,14.57
2023-09-16T06:52:24.121Z,14.75
2023-09-16T06:55:10.855Z,14.48
2023-09-16T06:57:57.425Z,14.52
2023-09-16T07:00:44.012Z,14.57
2023-09-16T07:03:30.966Z,15.13
2023-09-16T07:06:18.213Z,14.18
2023-09-16T07:09:04.367Z,14.55
2023-09-16T07:11:50.713Z,14.63
2023-09-16T07:14:39.763Z,13.05
2023-09-16T07:17:26.969Z,13.10
2023-09-16T07:20:15.914Z,13.57
2023-09-16T07:23:02.627Z,14.68
2023-09-16T07:25:57.493Z,13.40
2023-09-16T07:28:43.646Z,13.30
2023-09-16T07:31:31.187Z,13.50
2023-09-16T07:34:17.945Z,13.93
2023-09-16T07:37:05.665Z,14.95
2023-09-16T07:39:52.497Z,14.32
2023-09-16T07:42:38.981Z,14.90
2023-09-16T07:45:26.110Z,13.73
2023-09-16T07:48:12.437Z,13.95
2023-09-16T07:50:59.491Z,13.50
2023-09-16T07:53:45.923Z,13.82
2023-09-16T07:56:32.911Z,13.80
2023-09-16T07:59:21.451Z,13.95
2023-09-16T08:02:08.771Z,15.45
2023-09-16T08:04:55.055Z,15.20
2023-09-16T08:07:42.567Z,14.68
2023-09-16T08:10:29.375Z,15.15
2023-09-16T08:13:16.108Z,14.50
2023-09-16T08:16:04.035Z,14.85
2023-09-16T08:18:51.358Z,16.10
2023-09-16T08:21:38.681Z,16.00
2023-09-16T08:24:25.274Z,15.55
2023-09-16T08:27:12.249Z,16.38
2023-09-16T08:29:58.613Z,15.68
2023-09-16T08:32:46.123Z,16.33
2023-09-16T08:35:32.630Z,16.15
2023-09-16T08:38:19.586Z,15.98
2023-09-16T08:41:17.868Z,16.13
2023-09-16T08:44:07.225Z,15.23
2023-09-16T08:47:08.866Z,15.05
2023-09-16T08:50:06.711Z,14.38
2023-09-16T08:52:57.009Z,14.73
2023-09-16T08:55:49.892Z,14.23
2023-09-16T08:58:42.280Z,13.82
2023-09-16T09:01:29.306Z,13.75
2023-09-16T09:04:17.302Z,13.43
2023-09-16T09:07:04.443Z,12.88
2023-09-16T09:09:52.184Z,13.98
2023-09-16T09:12:41.109Z,13.85
2023-09-16T09:15:28.072Z,13.57
2023-09-16T09:18:18.978Z,12.75
2023-09-16T09:21:06.559Z,12.38
2023-09-16T09:23:52.605Z,13.35
2023-09-16T09:26:39.779Z,13.00
2023-09-16T09:29:26.047Z,12.75
2023-09-16T09:32:12.012Z,13.40
2023-09-16T09:35:08.460Z,12.52
2023-09-16T09:37:54.665Z,12.40
2023-09-16T09:40:57.849Z,12.75
2023-09-16T09:43:44.238Z,12.00
2023-09-16T09:46:31.119Z,12.60
2023-09-16T09:49:20.436Z,11.93
2023-09-16T09:52:07.186Z,12.35
2023-09-16T09:54:54.593Z,12.75
2023-09-16T09:57:41.692Z,12.25
2023-09-16T10:00:28.199Z,12.45
2023-09-16T10:03:15.937Z,12.60
2023-09-16T10:06:15.281Z,11.88
2023-09-16T10:09:02.200Z,12.40
2023-09-16T10:11:49.975Z,11.77
2023-09-16T10:14:36.130Z,11.98
2023-09-16T10:17:24.353Z,11.38
2023-09-16T10:20:14.613Z,10.85
2023-09-16T10:23:03.047Z,11.55
2023-09-16T10:25:49.811Z,11.32
2023-09-16T10:28:48.568Z,11.30
2023-09-16T10:31:35.320Z,10.85
2023-09-16T10:34:31.240Z,10.80
2023-09-16T10:37:19.139Z,9.90
2023-09-16T10:40:08.720Z,10.10
2023-09-16T10:42:57.745Z,10.32
2023-09-16T10:45:46.280Z,10.40
2023-09-16T10:48:33.046Z,11.90
2023-09-16T10:51:25.090Z,11.95
2023-09-16T10:54:43.049Z,11.65
2023-09-16T10:57:43.372Z,11.00
2023-09-16T11:00:39.976Z,11.82
2023-09-16T11:03:41.847Z,11.60
2023-09-16T11:06:28.008Z,11.00
2023-09-16T11:09:16.778Z,10.18
2023-09-16T11:12:04.898Z,10.80
2023-09-16T11:14:51.724Z,10.10
2023-09-16T11:17:41.601Z,9.80
2023-09-16T11:20:33.861Z,9.52
2023-09-16T11:23:20.208Z,9.65
2023-09-16T11:26:07.954Z,9.82
2023-09-16T11:28:56.160Z,9.60
2023-09-16T11:31:42.994Z,9.75
2023-09-16T11:34:30.868Z,9.02
2023-09-16T11:38:14.783Z,9.07
2023-09-16T11:41:11.822Z,8.77
2023-09-16T11:48:55.372Z,9.10
2023-09-16T11:51:42.076Z,9.50
2023-09-16T11:55:20.323Z,9.70
2023-09-16T11:58:06.737Z,9.48
2023-09-16T12:00:53.057Z,10.10
2023-09-16T12:03:43.447Z,9.88
2023-09-16T12:06:30.706Z,10.15
2023-09-16T12:09:19.218Z,10.30
2023-09-16T12:12:07.092Z,10.25
2023-09-16T12:14:54.074Z,9.63
2023-09-16T12:17:40.958Z,9.52
2023-09-16T12:20:26.955Z,10.45
2023-09-16T12:23:14.633Z,9.45
2023-09-16T12:26:01.551Z,9.80
2023-09-16T12:28:48.489Z,9.70
2023-09-16T12:31:36.029Z,9.48
2023-09-16T12:34:23.008Z,9.68
2023-09-16T12:37:09.633Z,9.18
2023-09-16T12:39:56.119Z,9.10
2023-09-16T12:42:43.315Z,8.43
2023-09-16T12:45:30.298Z,8.63
2023-09-16T12:48:17.045Z,8.65
2023-09-16T12:51:05.231Z,8.68
2023-09-16T12:53:54.433Z,9.18
2023-09-16T12:56:50.841Z,9.18
2023-09-16T12:59:37.819Z,8.50
2023-09-16T13:02:24.859Z,8.93
2023-09-16T13:05:20.151Z,8.55
2023-09-16T13:08:06.731Z,8.85
2023-09-16T13:10:56.510Z,8.63
2023-09-16T13:13:42.649Z,8.50
2023-09-16T13:16:36.356Z,8.75
2023-09-16T13:19:22.879Z,8.90
2023-09-16T13:22:14.094Z,8.57
2023-09-16T13:25:00.601Z,8.05
2023-09-16T13:27:47.538Z,8.05
2023-09-16T13:30:39.454Z,8.07
2023-09-16T13:33:55.734Z,8.25
2023-09-16T13:36:43.364Z,8.13
2023-09-16T13:39:41.696Z,7.97
2023-09-16T13:42:27.833Z,8.35
2023-09-16T13:45:14.472Z,8.27
2023-09-16T13:48:13.031Z,9.13
2023-09-16T13:50:59.476Z,9.05
2023-09-16T13:53:46.315Z,7.95
2023-09-16T13:56:33.216Z,7.78
2023-09-16T13:59:19.758Z,7.60
2023-09-16T14:02:07.105Z,7.60
2023-09-16T14:04:53.257Z,7.40
2023-09-16T14:07:40.390Z,7.20
2023-09-16T14:10:29.801Z,6.80
2023-09-16T14:13:16.899Z,6.50
2023-09-16T14:16:03.513Z,6.20
2023-09-16T14:18:49.877Z,7.32
2023-09-16T14:21:36.202Z,6.70
2023-09-16T14:24:23.865Z,6.20
2023-09-16T14:27:11.606Z,7.20
2023-09-16T14:33:27.319Z,6.60
2023-09-16T14:36:14.026Z,6.25
2023-09-16T14:38:59.804Z,6.82
2023-09-16T14:41:48.755Z,6.55
2023-09-16T14:44:36.045Z,7.13
2023-09-16T14:47:23.012Z,7.18
2023-09-16T14:50:09.964Z,7.60
2023-09-16T14:52:57.799Z,7.50
2023-09-16T14:55:45.705Z,7.32
2023-09-16T14:58:32.451Z,7.07
2023-09-16T15:01:23.277Z,7.18
2023-09-16T15:04:11.142Z,6.70
2023-09-16T15:06:57.311Z,7.25
2023-09-16T15:09:44.529Z,7.00
2023-09-16T15:12:30.963Z,6.35
2023-09-16T15:15:17.794Z,6.60
2023-09-16T15:18:04.311Z,6.45
2023-09-16T15:20:53.203Z,6.65
2023-09-16T15:23:39.245Z,7.15
2023-09-16T15:26:26.013Z,7.28
2023-09-16T15:29:12.521Z,7.00
2023-09-16T15:32:24.738Z,7.35
2023-09-16T15:35:06.657Z,7.10
2023-09-16T15:37:53.163Z,7.22
2023-09-16T15:40:39.804Z,7.30
2023-09-16T15:43:26.301Z,7.60
2023-09-16T15:46:12.987Z,7.20
2023-09-16T15:49:00.627Z,7.50
2023-09-16T15:51:47.675Z,7.97
2023-09-16T15:54:34.406Z,7.28
2023-09-16T15:57:21.488Z,7.95
2023-09-16T16:00:09.736Z,7.60
2023-09-16T16:02:56.673Z,7.35
2023-09-16T16:05:43.174Z,8.30
2023-09-16T16:08:29.999Z,8.15
2023-09-16T16:11:17.875Z,8.35
2023-09-16T16:14:08.343Z,9.05
2023-09-16T16:17:06.332Z,9.68
2023-09-16T16:20:01.427Z,10.50
2023-09-16T16:22:48.296Z,9.75
2023-09-16T16:25:35.081Z,9.75
2023-09-16T16:28:21.964Z,9.10
2023-09-16T16:31:08.596Z,9.30
2023-09-16T16:33:54.938Z,8.35
2023-09-16T16:36:41.259Z,8.80
2023-09-16T16:39:30.035Z,8.80
2023-09-16T16:42:17.458Z,9.00
2023-09-16T16:45:04.947Z,9.20
2023-09-16T16:47:51.336Z,9.50
2023-09-16T16:50:38.104Z,9.27
2023-09-16T16:53:24.109Z,9.07
2023-09-16T16:56:09.993Z,9.40
2023-09-16T16:58:56.499Z,9.07
2023-09-16T17:01:44.002Z,9.18
2023-09-16T17:04:31.486Z,9.27
2023-09-16T17:07:18.346Z,8.90
2023-09-16T17:10:06.210Z,8.88
2023-09-16T17:12:52.088Z,8.90
2023-09-16T17:15:42.109Z,9.10
2023-09-16T17:18:28.364Z,9.77
2023-09-16T17:21:15.024Z,10.07
2023-09-16T17:24:02.697Z,9.18
2023-09-16T17:26:51.857Z,9.50
2023-09-16T17:29:38.050Z,9.40
2023-09-16T17:32:25.497Z,8.65
2023-09-16T17:35:12.025Z,8.57
2023-09-16T17:37:58.011Z,9.40
2023-09-16T17:40:45.033Z,9.18
2023-09-16T17:43:31.082Z,8.52
2023-09-16T17:46:18.048Z,8.88
2023-09-16T17:49:04.257Z,8.85
2023-09-16T17:51:51.349Z,9.48
2023-09-16T17:54:37.126Z,8.98
2023-09-16T17:57:27.015Z,8.50
2023-09-16T18:00:14.298Z,9.40
2023-09-16T18:03:04.733Z,9.45
2023-09-16T18:05:51.837Z,9.70
2023-09-16T18:08:38.781Z,9.13
2023-09-16T18:11:25.776Z,9.82
2023-09-16T18:14:11.751Z,9.50
2023-09-16T18:16:58.850Z,9.02
2023-09-16T18:19:45.341Z,10.05
2023-09-16T18:22:33.214Z,9.32
2023-09-16T18:25:20.455Z,9.20
2023-09-16T18:28:08.453Z,9.82
2023-09-16T18:30:54.967Z,9.70
2023-09-16T18:33:41.775Z,9.57
2023-09-16T18:36:31.320Z,9.70
2023-09-16T18:39:18.330Z,9.50
2023-09-16T18:42:06.663Z,9.15
2023-09-16T18:44:53.479Z,9.45
2023-09-16T18:47:41.398Z,9.63
2023-09-16T18:50:27.871Z,10.15
2023-09-16T18:53:14.948Z,10.20
2023-09-16T18:56:01.353Z,9.88
2023-09-16T18:58:49.001Z,9.10
2023-09-16T19:01:36.454Z,9.32
2023-09-16T19:04:24.188Z,9.70
2023-09-16T19:07:11.158Z,9.75
2023-09-16T19:09:58.307Z,9.85
2023-09-16T19:12:45.097Z,9.50
2023-09-16T19:15:31.196Z,9.50
2023-09-16T19:18:17.914Z,9.63
2023-09-16T19:21:04.653Z,10.00
2023-09-16T19:23:51.857Z,9.90
2023-09-16T19:26:40.793Z,10.05
2023-09-16T19:29:28.871Z,10.50
2023-09-16T19:32:15.561Z,10.38
2023-09-16T19:35:02.805Z,10.30
2023-09-16T19:37:49.257Z,10.35
2023-09-16T19:40:36.793Z,9.80
2023-09-16T19:43:23.581Z,10.13
2023-09-16T19:46:10.729Z,10.68
2023-09-16T19:48:58.270Z,9.85
2023-09-16T19:51:44.397Z,9.32
2023-09-16T19:54:31.318Z,10.32
2023-09-16T19:57:18.441Z,10.52
2023-09-16T20:00:05.846Z,10.65
2023-09-16T20:02:53.730Z,10.18
2023-09-16T20:05:41.267Z,9.93
2023-09-16T20:08:27.980Z,10.57
2023-09-16T20:11:14.626Z,10.43
2023-09-16T20:14:01.079Z,10.48
2023-09-16T20:16:48.239Z,10.55
2023-09-16T20:19:38.001Z,10.30
2023-09-16T20:22:24.864Z,10.38
2023-09-16T20:25:14.968Z,10.50
2023-09-16T20:28:02.763Z,10.68
2023-09-16T20:30:49.335Z,10.05
2023-09-16T20:33:36.510Z,10.20
2023-09-16T20:36:23.149Z,10.48
2023-09-16T20:39:13.975Z,10.32
2023-09-16T20:42:00.788Z,10.48
2023-09-16T20:44:47.244Z,10.50
2023-09-16T20:47:33.837Z,10.80
2023-09-16T20:50:20.812Z,11.38
2023-09-16T20:53:07.791Z,10.57
2023-09-16T20:55:55.357Z,11.40
2023-09-16T20:58:44.398Z,10.90
2023-09-16T21:01:31.533Z,10.57
2023-09-16T21:04:18.750Z,10.30
2023-09-16T21:07:05.993Z,10.77
2023-09-16T21:09:52.922Z,10.25
2023-09-16T21:12:42.385Z,10.38
2023-09-16T21:15:28.868Z,11.02
2023-09-16T21:18:16.219Z,10.32
2023-09-16T21:21:02.271Z,10.82
2023-09-16T21:23:49.279Z,10.55
2023-09-16T21:26:36.175Z,10.60
2023-09-16T21:29:23.606Z,10.40
2023-09-16T21:32:12.373Z,10.60
2023-09-16T21:34:59.667Z,11.05
2023-09-16T21:37:46.452Z,11.02
2023-09-16T21:40:32.878Z,10.93
2023-09-16T21:43:21.613Z,10.57
2023-09-16T21:46:10.737Z,11.07
2023-09-16T21:48:56.902Z,10.02
2023-09-16T21:51:46.241Z,10.40
2023-09-16T21:54:35.397Z,10.50
2023-09-16T21:57:21.774Z,10.30
2023-09-16T22:00:18.949Z,10.00
2023-09-16T22:03:05.677Z,10.55
2023-09-16T22:05:54.456Z,10.60
2023-09-16T22:08:41.171Z,10.70
2023-09-16T22:11:28.232Z,10.20
2023-09-16T22:14:14.620Z,9.90
2023-09-16T22:17:01.450Z,10.73
2023-09-16T22:19:48.193Z,10.38
2023-09-16T22:22:35.455Z,10.18
2023-09-16T22:25:23.341Z,11.18
2023-09-16T22:28:11.276Z,10.48
2023-09-16T22:30:58.800Z,10.13
2023-09-16T22:33:45.734Z,10.90
2023-09-16T22:36:31.830Z,10.77
2023-09-16T22:39:18.496Z,10.73
2023-09-16T22:42:06.036Z,10.65
2023-09-16T22:45:04.256Z,10.75
2023-09-16T22:47:52.659Z,10.88
2023-09-16T22:50:39.222Z,10.98
2023-09-16T22:53:25.723Z,10.93
2023-09-16T22:56:11.658Z,10.93
2023-09-16T22:58:58.491Z,11.00
2023-09-16T23:01:44.396Z,11.10
2023-09-16T23:04:31.137Z,11.43
2023-09-16T23:07:18.149Z,11.02
2023-09-16T23:10:05.569Z,11.32
2023-09-16T23:12:51.894Z,10.90
2023-09-16T23:15:38.887Z,10.90
2023-09-16T23:18:25.360Z,10.68
2023-09-16T23:21:12.773Z,10.90
2023-09-16T23:23:58.999Z,10.38
2023-09-16T23:26:46.517Z,10.82
2023-09-16T23:29:33.431Z,10.43
2023-09-16T23:32:19.901Z,10.88
2023-09-16T23:35:08.052Z,10.80
2023-09-16T23:37:55.044Z,10.93
2023-09-16T23:40:43.067Z,11.13
2023-09-16T23:43:29.548Z,11.27
2023-09-16T23:46:16.319Z,11.18
2023-09-16T23:49:05.110Z,11.30
2023-09-16T23:51:54.442Z,11.30
2023-09-16T23:54:45.098Z,10.95
2023-09-16T23:57:31.428Z,10.75
